createdAt,value
2023-02-19T00:01:13.661Z,95681.13
2023-02-19T00:03:41.377Z,95660.16
2023-02-19T00:06:10.670Z,95659.13
2023-02-19T00:08:41.392Z,95651.59
2023-02-19T00:11:10.828Z,95639.75
2023-02-19T00:13:38.381Z,95654.53
2023-02-19T00:16:06.252Z,95646.84
2023-02-19T00:18:33.410Z,95648.41
2023-02-19T00:20:59.820Z,95641.53
2023-02-19T00:23:27.295Z,95657.34
2023-02-19T00:25:53.775Z,95628.44
2023-02-19T00:28:20.500Z,95628.88
2023-02-19T00:30:47.171Z,95643.28
2023-02-19T00:33:13.578Z,95645.31
2023-02-19T00:35:40.843Z,95641.53
2023-02-19T00:38:07.328Z,95634.44
2023-02-19T00:40:33.750Z,95643.84
2023-02-19T00:43:00.135Z,95634.38
2023-02-19T00:45:26.682Z,95644.00
2023-02-19T00:47:53.945Z,95637.13
2023-02-19T00:50:21.215Z,95627.47
2023-02-19T00:52:48.318Z,95627.03
2023-02-19T00:55:14.880Z,95612.25
2023-02-19T00:57:41.327Z,95622.13
2023-02-19T01:00:09.302Z,95620.09
2023-02-19T01:02:35.732Z,95622.13
2023-02-19T01:05:02.226Z,95608.09
2023-02-19T01:07:28.706Z,95612.03
2023-02-19T01:09:55.793Z,95604.34
2023-02-19T01:12:23.547Z,95605.31
2023-02-19T01:14:49.947Z,95620.72
2023-02-19T01:17:16.374Z,95599.56
2023-02-19T01:19:42.767Z,95604.72
2023-02-19T01:22:09.271Z,95591.69
2023-02-19T01:24:35.649Z,95603.13
2023-02-19T01:27:02.825Z,95596.56
2023-02-19T01:29:29.264Z,95601.47
2023-02-19T01:31:55.755Z,95583.50
2023-02-19T01:34:22.342Z,95587.22
2023-02-19T01:36:48.808Z,95597.31
2023-02-19T01:39:15.180Z,95577.59
2023-02-19T01:41:41.901Z,95579.72
2023-02-19T01:44:47.891Z,95588.56
2023-02-19T01:47:18.082Z,95578.13
2023-02-19T01:49:48.210Z,95572.53
2023-02-19T01:52:18.496Z,95576.69
2023-02-19T01:54:45.878Z,95570.38
2023-02-19T01:57:17.830Z,95579.44
2023-02-19T01:59:46.989Z,95586.16
2023-02-19T02:02:13.463Z,95570.44
2023-02-19T02:04:40.035Z,95573.78
2023-02-19T02:07:27.691Z,95573.00
2023-02-19T02:10:12.646Z,95567.22
2023-02-19T02:12:39.094Z,95563.78
2023-02-19T02:15:07.517Z,95579.34
2023-02-19T02:17:42.481Z,95564.31
2023-02-19T02:20:31.993Z,95557.63
2023-02-19T02:23:08.441Z,95553.72
2023-02-19T02:25:58.706Z,95553.47
2023-02-19T02:28:38.793Z,95554.38
2023-02-19T02:31:13.013Z,95555.19
2023-02-19T02:33:46.198Z,95552.50
2023-02-19T02:36:16.778Z,95569.19
2023-02-19T02:38:45.734Z,95551.28
2023-02-19T02:41:14.274Z,95537.91
2023-02-19T02:43:41.266Z,95551.22
2023-02-19T02:46:11.199Z,95549.41
2023-02-19T02:48:42.073Z,95536.41
2023-02-19T02:51:20.340Z,95538.78
2023-02-19T02:54:25.451Z,95519.50
2023-02-19T02:56:55.461Z,95509.59
2023-02-19T02:59:25.395Z,95520.13
2023-02-19T03:02:11.569Z,95520.84
2023-02-19T03:05:01.053Z,95493.06
2023-02-19T03:07:33.648Z,95505.94
2023-02-19T03:10:04.339Z,95499.13
2023-02-19T03:12:50.926Z,95491.28
2023-02-19T03:15:37.291Z,95479.19
2023-02-19T03:18:27.179Z,95500.88
2023-02-19T03:20:57.440Z,95486.84
2023-02-19T03:23:43.264Z,95490.94
2023-02-19T03:26:11.653Z,95489.56
2023-02-19T03:29:05.021Z,95476.28
2023-02-19T03:31:32.825Z,95474.06
2023-02-19T03:34:04.744Z,95485.59
2023-02-19T03:36:36.756Z,95501.44
2023-02-19T03:39:06.217Z,95487.88
2023-02-19T03:41:40.715Z,95490.06
2023-02-19T03:44:13.161Z,95480.56
2023-02-19T03:46:48.512Z,95478.22
2023-02-19T03:49:26.032Z,95469.75
2023-02-19T03:52:02.136Z,95478.47
2023-02-19T03:54:37.763Z,95477.75
2023-02-19T03:57:11.604Z,95449.41
2023-02-19T03:59:46.895Z,95459.75
2023-02-19T04:02:16.610Z,95449.91
2023-02-19T04:04:49.238Z,95448.78
2023-02-19T04:07:16.162Z,95454.19
2023-02-19T04:09:46.357Z,95458.00
2023-02-19T04:12:20.736Z,95448.00
2023-02-19T04:14:53.297Z,95442.09
2023-02-19T04:17:24.568Z,95446.22
2023-02-19T04:19:54.230Z,95446.31
2023-02-19T04:22:22.250Z,95460.38
2023-02-19T04:24:51.726Z,95455.03
2023-02-19T04:27:18.462Z,95438.81
2023-02-19T04:29:45.829Z,95432.59
2023-02-19T04:32:13.811Z,95445.38
2023-02-19T04:34:40.639Z,95434.69
2023-02-19T04:37:07.748Z,95429.75
2023-02-19T04:39:34.640Z,95460.88
2023-02-19T04:42:01.390Z,95455.59
2023-02-19T04:44:27.815Z,95449.41
2023-02-19T04:46:55.426Z,95453.19
2023-02-19T04:49:21.932Z,95471.22
2023-02-19T04:51:48.429Z,95469.28
2023-02-19T04:54:15.594Z,95452.09
2023-02-19T04:56:42.086Z,95471.88
2023-02-19T04:59:08.527Z,95480.28
2023-02-19T05:01:35.098Z,95485.41
2023-02-19T05:04:01.634Z,95478.59
2023-02-19T05:06:28.042Z,95471.72
2023-02-19T05:08:54.552Z,95494.50
2023-02-19T05:11:23.346Z,95495.63
2023-02-19T05:13:49.816Z,95482.56
2023-02-19T05:16:16.857Z,95485.13
2023-02-19T05:18:45.930Z,95475.69
2023-02-19T05:21:13.086Z,95472.81
2023-02-19T05:23:39.807Z,95471.50
2023-02-19T05:26:06.906Z,95472.97
2023-02-19T05:28:34.317Z,95504.88
2023-02-19T05:31:05.192Z,95486.19
2023-02-19T05:33:31.926Z,95527.28
2023-02-19T05:35:58.521Z,95507.81
2023-02-19T05:38:25.483Z,95501.75
2023-02-19T05:40:52.084Z,95507.19
2023-02-19T05:43:18.611Z,95498.84
2023-02-19T05:45:45.790Z,95503.50
2023-02-19T05:48:12.241Z,95501.41
2023-02-19T05:50:39.968Z,95510.50
2023-02-19T05:53:12.543Z,95517.19
2023-02-19T05:55:39.104Z,95526.19
2023-02-19T05:58:05.572Z,95534.41
2023-02-19T06:00:33.076Z,95534.41
2023-02-19T06:03:01.006Z,95539.94
2023-02-19T06:05:27.601Z,95534.78
2023-02-19T06:07:54.112Z,95544.72
2023-02-19T06:10:20.544Z,95542.31
2023-02-19T06:12:47.038Z,95552.03
2023-02-19T06:15:13.708Z,95544.88
2023-02-19T06:17:43.153Z,95530.00
2023-02-19T06:20:10.708Z,95554.13
2023-02-19T06:22:37.460Z,95552.22
2023-02-19T06:25:05.121Z,95530.97
2023-02-19T06:27:31.683Z,95556.81
2023-02-19T06:29:58.224Z,95553.81
2023-02-19T06:32:24.957Z,95566.88
2023-02-19T06:34:51.549Z,95563.63
2023-02-19T06:37:19.107Z,95601.19
2023-02-19T06:39:45.484Z,95576.59
2023-02-19T06:42:12.219Z,95587.09
2023-02-19T06:44:38.787Z,95570.97
2023-02-19T06:47:05.365Z,95577.03
2023-02-19T06:49:31.842Z,95587.09
2023-02-19T06:51:59.865Z,95576.97
2023-02-19T06:54:27.164Z,95613.69
2023-02-19T06:56:53.948Z,95578.03
2023-02-19T06:59:20.443Z,95590.97
2023-02-19T07:01:47.373Z,95590.91
2023-02-19T07:04:14.114Z,95596.81
2023-02-19T07:06:40.700Z,95597.09
2023-02-19T07:09:08.706Z,95606.75
2023-02-19T07:11:38.830Z,95614.16
2023-02-19T07:14:07.859Z,95610.97
2023-02-19T07:16:34.566Z,95624.81
2023-02-19T07:19:01.832Z,95624.81
2023-02-19T07:21:29.055Z,95631.84
2023-02-19T07:23:56.740Z,95634.41
2023-02-19T07:26:24.140Z,95637.44
2023-02-19T07:28:51.678Z,95635.44
2023-02-19T07:31:20.663Z,95629.72
2023-02-19T07:33:47.598Z,95650.97
2023-02-19T07:36:16.502Z,95631.53
2023-02-19T07:38:43.506Z,95644.50
2023-02-19T07:41:10.884Z,95647.22
2023-02-19T07:43:38.898Z,95658.13
2023-02-19T07:46:07.994Z,95645.91
2023-02-19T07:48:34.802Z,95650.97
2023-02-19T07:51:02.988Z,95654.25
2023-02-19T07:53:30.457Z,95667.00
2023-02-19T07:56:00.317Z,95657.22
2023-02-19T07:58:26.805Z,95666.47
2023-02-19T08:00:53.353Z,95680.84
2023-02-19T08:03:20.176Z,95669.03
2023-02-19T08:05:49.111Z,95656.03
2023-02-19T08:08:16.212Z,95669.38
2023-02-19T08:11:01.389Z,95672.88
2023-02-19T08:13:30.180Z,95666.94
2023-02-19T08:16:17.317Z,95673.75
2023-02-19T08:18:48.207Z,95660.97
2023-02-19T08:21:17.393Z,95690.72
2023-02-19T08:23:45.552Z,95697.00
2023-02-19T08:26:12.204Z,95689.69
2023-02-19T08:28:38.922Z,95687.97
2023-02-19T08:31:07.728Z,95681.25
2023-02-19T08:33:34.855Z,95688.66
2023-02-19T08:36:04.175Z,95694.09
2023-02-19T08:38:31.214Z,95694.41
2023-02-19T08:40:57.794Z,95703.38
2023-02-19T08:43:24.291Z,95705.31
2023-02-19T08:45:54.041Z,95702.44
2023-02-19T08:48:20.730Z,95695.81
2023-02-19T08:50:53.727Z,95705.31
2023-02-19T08:53:20.879Z,95701.94
2023-02-19T08:55:47.367Z,95714.25
2023-02-19T08:58:13.804Z,95711.53
2023-02-19T09:00:40.505Z,95715.00
2023-02-19T09:03:07.006Z,95713.28
2023-02-19T09:05:33.566Z,95724.31
2023-02-19T09:08:00.080Z,95716.09
2023-02-19T09:10:27.203Z,95732.44
2023-02-19T09:12:53.803Z,95740.88
2023-02-19T09:15:20.461Z,95742.00
2023-02-19T09:17:51.096Z,95743.34
2023-02-19T09:20:18.455Z,95744.78
2023-02-19T09:22:45.277Z,95753.53
2023-02-19T09:25:11.991Z,95763.94
2023-02-19T09:27:41.238Z,95763.75
2023-02-19T09:30:08.832Z,95764.94
2023-02-19T09:32:35.394Z,95754.41
2023-02-19T09:35:01.996Z,95766.06
2023-02-19T09:37:28.878Z,95775.63
2023-02-19T09:39:55.647Z,95778.44
2023-02-19T09:42:24.281Z,95778.34
2023-02-19T09:44:54.750Z,95785.91
2023-02-19T09:47:23.923Z,95788.53
2023-02-19T09:49:53.744Z,95787.13
2023-02-19T09:52:33.708Z,95785.97
2023-02-19T09:55:02.826Z,95810.72
2023-02-19T09:57:31.954Z,95748.63
2023-02-19T10:00:04.658Z,95786.28
2023-02-19T10:02:31.370Z,95802.22
2023-02-19T10:04:58.499Z,95805.94
2023-02-19T10:07:27.840Z,95809.69
2023-02-19T10:09:58.683Z,95835.09
2023-02-19T10:12:27.454Z,95813.25
2023-02-19T10:14:59.387Z,95806.50
2023-02-19T10:17:30.682Z,95830.78
2023-02-19T10:19:57.942Z,95794.78
2023-02-19T10:22:25.135Z,95814.63
2023-02-19T10:24:55.474Z,95832.09
2023-02-19T10:27:22.423Z,95812.28
2023-02-19T10:29:50.219Z,95817.69
2023-02-19T10:32:22.165Z,95809.06
2023-02-19T10:35:08.088Z,95840.28
2023-02-19T10:37:36.156Z,95808.06
2023-02-19T10:40:02.924Z,95826.03
2023-02-19T10:42:29.684Z,95836.38
2023-02-19T10:45:01.035Z,95795.59
2023-02-19T10:47:31.982Z,95808.31
2023-02-19T10:50:02.050Z,95831.56
2023-02-19T10:52:33.596Z,95795.44
2023-02-19T10:55:15.837Z,95809.03
2023-02-19T10:57:42.513Z,95799.66
2023-02-19T11:03:18.607Z,95805.72
2023-02-19T11:05:58.855Z,95786.94
2023-02-19T11:08:25.434Z,95815.94
2023-02-19T11:10:51.960Z,95785.09
2023-02-19T11:13:25.361Z,95785.53
2023-02-19T11:15:53.694Z,95783.88
2023-02-19T11:18:22.840Z,95781.41
2023-02-19T11:20:53.657Z,95807.94
2023-02-19T11:23:26.498Z,95793.88
2023-02-19T11:25:55.636Z,95801.66
2023-02-19T11:28:29.498Z,95792.91
2023-02-19T11:31:14.465Z,95809.75
2023-02-19T11:33:50.298Z,95794.13
2023-02-19T11:36:28.700Z,95793.59
2023-02-19T11:38:58.377Z,95787.81
2023-02-19T11:41:42.668Z,95784.28
2023-02-19T11:44:24.971Z,95800.03
2023-02-19T11:47:04.810Z,95777.47
2023-02-19T11:49:43.390Z,95766.84
2023-02-19T11:52:23.312Z,95783.66
2023-02-19T11:54:57.019Z,95792.63
2023-02-19T11:57:40.119Z,95783.88
2023-02-19T12:03:34.320Z,95793.75
2023-02-19T12:06:17.629Z,95798.91
2023-02-19T12:09:22.329Z,95784.50
2023-02-19T12:12:14.225Z,95789.16
2023-02-19T12:15:13.060Z,95792.78
2023-02-19T12:18:03.450Z,95800.22
2023-02-19T12:20:34.592Z,95804.22
2023-02-19T12:23:24.101Z,95790.59
2023-02-19T12:25:57.803Z,95797.97
2023-02-19T12:28:54.034Z,95797.81
2023-02-19T12:31:47.693Z,95802.56
2023-02-19T12:34:52.379Z,95819.28
2023-02-19T12:37:32.464Z,95810.34
2023-02-19T12:40:14.318Z,95800.91
2023-02-19T12:42:53.989Z,95817.97
2023-02-19T12:45:26.688Z,95815.75
2023-02-19T12:48:02.500Z,95851.81
2023-02-19T12:50:30.263Z,95837.03
2023-02-19T12:53:02.119Z,95853.97
2023-02-19T12:55:33.759Z,95894.19
2023-02-19T12:58:04.346Z,95853.53
2023-02-19T13:00:38.674Z,95862.66
2023-02-19T13:03:10.898Z,95835.34
2023-02-19T13:05:44.742Z,95854.97
2023-02-19T13:08:19.237Z,95849.91
2023-02-19T13:10:51.060Z,95864.47
2023-02-19T13:13:23.877Z,95861.06
2023-02-19T13:15:56.305Z,95833.75
2023-02-19T13:18:28.483Z,95853.03
2023-02-19T13:20:56.180Z,95847.66
2023-02-19T13:23:44.831Z,95861.72
2023-02-19T13:26:25.903Z,95887.81
2023-02-19T13:29:08.409Z,95892.25
2023-02-19T13:31:59.503Z,95888.22
2023-02-19T13:34:43.840Z,95869.00
2023-02-19T13:37:11.294Z,95852.31
2023-02-19T13:39:47.922Z,95834.81
2023-02-19T13:42:25.578Z,95844.38
2023-02-19T13:44:57.076Z,95844.69
2023-02-19T13:47:49.025Z,95847.13
2023-02-19T13:50:20.690Z,95843.56
2023-02-19T13:52:47.220Z,95862.97
2023-02-19T13:55:50.688Z,95871.50
2023-02-19T13:59:01.211Z,95872.69
2023-02-19T14:02:10.582Z,95877.16
2023-02-19T14:04:52.003Z,95853.38
2023-02-19T14:07:34.862Z,95850.34
2023-02-19T14:10:02.244Z,95847.50
2023-02-19T14:12:32.949Z,95847.84
2023-02-19T14:15:32.952Z,95840.69
2023-02-19T14:17:59.359Z,95856.31
2023-02-19T14:20:43.497Z,95849.25
2023-02-19T14:23:15.861Z,95862.66
2023-02-19T14:25:57.480Z,95865.06
2023-02-19T14:28:37.520Z,95846.47
2023-02-19T14:31:18.347Z,95839.34
2023-02-19T14:33:48.497Z,95859.44
2023-02-19T14:36:26.962Z,95858.31
2023-02-19T14:38:55.981Z,95868.69
2023-02-19T14:41:24.414Z,95861.81
2023-02-19T14:43:53.750Z,95859.28
2023-02-19T14:46:27.609Z,95856.72
2023-02-19T14:48:55.492Z,95856.06
2023-02-19T14:51:30.146Z,95844.41
2023-02-19T14:53:58.394Z,95838.44
2023-02-19T14:56:28.412Z,95850.41
2023-02-19T14:59:24.270Z,95876.16
2023-02-19T15:01:55.135Z,95870.09
2023-02-19T15:04:24.087Z,95868.50
2023-02-19T15:06:52.382Z,95875.50
2023-02-19T15:09:20.600Z,95879.19
2023-02-19T15:11:47.787Z,95874.72
2023-02-19T15:14:22.973Z,95879.97
2023-02-19T15:16:58.390Z,95879.50
2023-02-19T15:19:25.180Z,95908.13
2023-02-19T15:21:52.269Z,95901.88
2023-02-19T15:24:19.263Z,95906.19
2023-02-19T15:26:49.996Z,95899.47
2023-02-19T15:29:19.499Z,95901.00
2023-02-19T15:31:46.860Z,95902.44
2023-02-19T15:34:18.052Z,95902.44
2023-02-19T15:36:45.021Z,95902.91
2023-02-19T15:39:20.590Z,95914.56
2023-02-19T15:41:55.784Z,95902.44
2023-02-19T15:44:36.446Z,95894.59
2023-02-19T15:47:12.195Z,95899.59
2023-02-19T15:49:45.761Z,95901.19
2023-02-19T15:52:19.744Z,95923.13
2023-02-19T15:54:52.384Z,95901.22
2023-02-19T15:57:22.369Z,95903.16
2023-02-19T15:59:54.273Z,95907.00
2023-02-19T16:02:21.038Z,95903.00
2023-02-19T16:04:47.501Z,95907.69
2023-02-19T16:07:24.172Z,95909.78
2023-02-19T16:10:05.979Z,95908.66
2023-02-19T16:12:32.514Z,95896.50
2023-02-19T16:14:58.931Z,95911.53
2023-02-19T16:17:29.971Z,95899.22
2023-02-19T16:19:58.117Z,95920.78
2023-02-19T16:22:28.279Z,95904.69
2023-02-19T16:24:58.591Z,95906.28
2023-02-19T16:27:29.936Z,95912.34
2023-02-19T16:29:56.904Z,95919.38
2023-02-19T16:32:36.911Z,95920.19
2023-02-19T16:35:05.515Z,95914.59
2023-02-19T16:37:35.085Z,95931.06
2023-02-19T16:40:50.292Z,95960.59
2023-02-19T16:43:30.984Z,95936.78
2023-02-19T16:45:58.501Z,95935.19
2023-02-19T16:48:25.731Z,95938.72
2023-02-19T16:50:52.380Z,95956.75
2023-02-19T16:53:20.358Z,95958.97
2023-02-19T16:55:46.954Z,95975.91
2023-02-19T16:58:13.475Z,95970.03
2023-02-19T17:00:39.924Z,95982.78
2023-02-19T17:03:09.371Z,95980.22
2023-02-19T17:05:37.740Z,95985.81
2023-02-19T17:08:22.368Z,95982.31
2023-02-19T17:10:48.782Z,95993.31
2023-02-19T17:13:15.279Z,96007.06
2023-02-19T17:15:41.811Z,95996.69
2023-02-19T17:18:10.297Z,95995.88
2023-02-19T17:20:38.204Z,95992.84
2023-02-19T17:23:04.583Z,95985.81
2023-02-19T17:25:30.978Z,95983.41
2023-02-19T17:27:57.414Z,95992.84
2023-02-19T17:30:26.815Z,95999.25
2023-02-19T17:32:53.293Z,95998.31
2023-02-19T17:35:19.756Z,96006.75
2023-02-19T17:37:46.995Z,96023.56
2023-02-19T17:40:31.786Z,96022.06
2023-02-19T17:42:59.145Z,96017.44
2023-02-19T17:45:25.652Z,96019.69
2023-02-19T17:47:52.323Z,96015.06
2023-02-19T17:50:20.938Z,96021.91
2023-02-19T17:52:48.245Z,96024.16
2023-02-19T17:55:17.615Z,96025.09
2023-02-19T17:57:44.555Z,96030.69
2023-02-19T18:00:13.798Z,96042.50
2023-02-19T18:02:40.249Z,96054.16
2023-02-19T18:05:07.104Z,96045.38
2023-02-19T18:07:33.558Z,96043.78
2023-02-19T18:10:00.613Z,96059.59
2023-02-19T18:12:30.130Z,96067.59
2023-02-19T18:14:59.098Z,96083.25
2023-02-19T18:17:26.269Z,96079.69
2023-02-19T18:19:53.440Z,96082.75
2023-02-19T18:22:20.393Z,96078.91
2023-02-19T18:24:47.684Z,96078.09
2023-02-19T18:27:16.513Z,96083.38
2023-02-19T18:29:42.902Z,96080.31
2023-02-19T18:32:09.533Z,96107.63
2023-02-19T18:34:36.387Z,96106.19
2023-02-19T18:37:03.172Z,96100.09
2023-02-19T18:39:29.585Z,96110.00
2023-02-19T18:41:57.394Z,96111.78
2023-02-19T18:44:25.096Z,96125.00
2023-02-19T18:46:51.903Z,96124.19
2023-02-19T18:49:18.318Z,96121.81
2023-02-19T18:51:45.891Z,96136.34
2023-02-19T18:54:12.489Z,96129.50
2023-02-19T18:56:42.574Z,96123.72
2023-02-19T18:59:09.415Z,96124.03
2023-02-19T19:01:36.865Z,96118.47
2023-02-19T19:04:03.614Z,96130.75
2023-02-19T19:06:30.253Z,96124.34
2023-02-19T19:08:57.884Z,96119.84
2023-02-19T19:11:24.774Z,96113.94
2023-02-19T19:13:51.245Z,96131.16
2023-02-19T19:16:17.649Z,96123.81
2023-02-19T19:18:47.126Z,96136.72
2023-02-19T19:21:14.938Z,96127.31
2023-02-19T19:23:41.546Z,96126.06
2023-02-19T19:26:08.870Z,96132.13
2023-02-19T19:28:35.469Z,96127.00
2023-02-19T19:31:02.352Z,96127.63
2023-02-19T19:33:29.228Z,96129.84
2023-02-19T19:35:56.363Z,96125.41
2023-02-19T19:38:23.276Z,96134.00
2023-02-19T19:40:50.616Z,96124.59
2023-02-19T19:43:17.074Z,96127.81
2023-02-19T19:45:43.550Z,96137.38
2023-02-19T19:48:10.170Z,96128.91
2023-02-19T19:50:38.290Z,96125.41
2023-02-19T19:53:05.325Z,96136.91
2023-02-19T19:55:34.928Z,96128.44
2023-02-19T19:58:01.666Z,96126.34
2023-02-19T20:00:53.950Z,96123.00
2023-02-19T20:03:20.743Z,96127.00
2023-02-19T20:05:49.571Z,96132.13
2023-02-19T20:08:17.379Z,96126.19
2023-02-19T20:10:46.182Z,96125.88
2023-02-19T20:13:16.133Z,96122.34
2023-02-19T20:15:45.207Z,96134.44
2023-02-19T20:18:11.936Z,96141.00
2023-02-19T20:20:38.347Z,96149.91
2023-02-19T20:23:04.755Z,96136.84
2023-02-19T20:25:31.903Z,96154.72
2023-02-19T20:27:58.286Z,96135.34
2023-02-19T20:30:27.765Z,96140.16
2023-02-19T20:32:56.346Z,96144.66
2023-02-19T20:35:26.439Z,96148.47
2023-02-19T20:37:53.749Z,96137.91
2023-02-19T20:40:20.228Z,96154.66
2023-02-19T20:42:47.359Z,96149.88
2023-02-19T20:45:15.945Z,96153.38
2023-02-19T20:47:45.436Z,96144.91
2023-02-19T20:50:12.014Z,96148.41
2023-02-19T20:52:38.426Z,96146.34
2023-02-19T20:55:05.514Z,96143.81
2023-02-19T20:57:31.936Z,96136.94
2023-02-19T20:59:59.047Z,96163.44
2023-02-19T21:02:28.418Z,96141.09
2023-02-19T21:04:56.017Z,96142.56
2023-02-19T21:07:22.704Z,96156.72
2023-02-19T21:09:49.303Z,96155.88
2023-02-19T21:12:15.837Z,96170.56
2023-02-19T21:14:42.630Z,96175.66
2023-02-19T21:17:09.730Z,96162.09
2023-02-19T21:19:36.136Z,96161.94
2023-02-19T21:22:02.647Z,96166.09
2023-02-19T21:24:29.078Z,96162.09
2023-02-19T21:26:55.464Z,96172.59
2023-02-19T21:29:22.309Z,96171.50
2023-02-19T21:31:50.424Z,96171.50
2023-02-19T21:34:20.634Z,96176.09
2023-02-19T21:36:47.091Z,96169.44
2023-02-19T21:39:15.859Z,96166.19
2023-02-19T21:41:42.313Z,96162.91
2023-02-19T21:44:08.807Z,96171.50
2023-02-19T21:46:35.339Z,96152.19
2023-02-19T21:49:01.828Z,96154.44
2023-02-19T21:51:31.152Z,96160.63
2023-02-19T21:53:57.867Z,96162.25
2023-02-19T21:56:27.122Z,96156.34
2023-02-19T21:58:53.980Z,96124.25
2023-02-19T22:01:21.395Z,96146.28
2023-02-19T22:03:48.233Z,96145.03
2023-02-19T22:06:15.227Z,96164.94
2023-02-19T22:08:42.957Z,96158.16
2023-02-19T22:11:09.764Z,96146.78
2023-02-19T22:13:39.965Z,96153.19
2023-02-19T22:16:07.079Z,96157.94
2023-02-19T22:18:33.826Z,96170.84
2023-02-19T22:21:00.480Z,96173.53
2023-02-19T22:23:26.899Z,96165.09
2023-02-19T22:25:53.900Z,96166.19
2023-02-19T22:28:20.335Z,96181.50
2023-02-19T22:30:47.117Z,96169.19
2023-02-19T22:33:13.490Z,96179.59
2023-02-19T22:35:40.085Z,96181.34
2023-02-19T22:38:06.514Z,96181.19
2023-02-19T22:40:32.906Z,96184.03
2023-02-19T22:42:59.969Z,96171.44
2023-02-19T22:45:26.331Z,96180.69
2023-02-19T22:47:53.783Z,96186.75
2023-02-19T22:50:21.850Z,96180.03
2023-02-19T22:52:49.102Z,96179.84
2023-02-19T22:55:16.008Z,96163.91
2023-02-19T22:57:42.437Z,96176.69
2023-02-19T23:00:15.852Z,96183.69
2023-02-19T23:02:42.260Z,96182.88
2023-02-19T23:05:08.662Z,96184.78
2023-02-19T23:07:35.117Z,96177.75
2023-02-19T23:10:01.553Z,96188.59
2023-02-19T23:12:27.941Z,96182.22
2023-02-19T23:14:54.387Z,96187.50
2023-02-19T23:17:21.439Z,96186.19
2023-02-19T23:19:47.883Z,96198.00
2023-02-19T23:22:14.367Z,96199.63
2023-02-19T23:24:40.791Z,96206.09
2023-02-19T23:27:07.252Z,96201.28
2023-02-19T23:29:33.696Z,96208.00
2023-02-19T23:32:00.237Z,96220.25
2023-02-19T23:34:27.445Z,96201.00
2023-02-19T23:36:54.641Z,96196.47
2023-02-19T23:39:22.142Z,96195.38
2023-02-19T23:41:50.193Z,96190.56
2023-02-19T23:44:17.354Z,96193.28
2023-02-19T23:46:44.201Z,96202.91
2023-02-19T23:49:10.692Z,96197.44
2023-02-19T23:51:37.743Z,96197.50
2023-02-19T23:54:04.372Z,96194.94
2023-02-19T23:56:30.936Z,96191.22
2023-02-19T23:58:57.938Z,96193.50
